Latest Weather Observations for Wudinna Airport

IDS60801

Issued at 10:31 am CST Tuesday 3 May 2016 (issued every 30 minutes, with the page automatically refreshed every 10 minutes)

About weather observations | Map of weather stations | Latest weather observations for SA | Other Formats
Station Details ID: 018083 Name: WUDINNA AERO Lat: -33.04 Lon: 135.45 Height: 86.4 m
Data from the previous 72 hours. | See also: Recent months at Wudinna Airport
Date/Time
CST
Temp
°C
App
Temp
°C
Dew
Point
Rel
Hum
%
Delta-T
°C
Wind Press
QNH
hPa
Press
MSL
hPa
Rain
since 9 am
mm
Dir
 
Spd
km/h
Gust
km/h
Spd
kts
Gust
kts
03/10:30am 16.6 10.1 12.9 79 2.1 WNW 39 50 21 27 1012.3 - 0.0
03/10:00am 16.3 9.4 12.7 79 2.0 WNW 41 50 22 27 1012.4 - 0.0
03/09:30am 15.8 8.3 12.0 78 2.1 WNW 43 54 23 29 1012.0 - 0.0
03/09:00am 16.6 9.4 10.7 68 3.2 NW 39 48 21 26 1011.8 1011.7 0.0
03/08:30am 15.1 10.0 10.5 74 2.4 NW 28 39 15 21 1011.7 - 0.0
03/08:00am 13.3 8.2 9.2 76 2.1 NNW 26 37 14 20 1011.4 - 0.0
03/07:30am 11.9 6.1 8.0 77 1.9 NNW 28 33 15 18 1011.0 - 0.0
03/07:00am 11.8 6.4 7.9 77 1.9 NNW 26 35 14 19 1010.9 - 0.0
03/06:30am 11.8 6.0 8.1 78 1.8 NNW 28 35 15 19 1010.7 - 0.0
03/06:00am 12.0 6.2 8.1 77 1.9 NNW 28 41 15 22 1010.7 1010.6 0.0
03/05:30am 11.9 6.2 8.2 78 1.8 NNW 28 37 15 20 1010.7 - 0.0
03/05:00am 12.0 6.3 8.3 78 1.8 NNW 28 37 15 20 1010.4 - 0.0
03/04:30am 11.5 6.1 8.0 79 1.7 NNW 26 33 14 18 1010.4 - 0.0
03/04:00am 11.9 6.2 8.4 79 1.7 NNW 28 33 15 18 1010.4 - 0.0
03/03:30am 12.2 6.6 8.9 80 1.7 NNW 28 35 15 19 1010.7 - 0.0
03/03:00am 12.2 6.6 8.9 80 1.7 NNW 28 37 15 20 1010.8 1010.7 0.0
03/02:30am 11.9 6.7 8.9 82 1.5 NNW 26 35 14 19 1011.0 - 0.0
03/02:00am 12.1 6.6 9.1 82 1.5 NNW 28 39 15 21 1011.4 - 0.0
03/01:30am 12.5 7.9 9.5 82 1.5 NNW 24 30 13 16 1011.7 - 0.0
03/01:00am 11.8 7.5 9.2 84 1.3 NNW 22 28 12 15 1012.1 - 0.0
03/12:30am 12.0 8.3 9.4 84 1.3 NNW 19 24 10 13 1012.3 - 0.0
03/12:00am 12.0 8.3 9.4 84 1.3 NNW 19 24 10 13 1012.7 1012.6 0.0
 
Date/Time
CST
Temp
°C
App
Temp
°C
Dew
Point
Rel
Hum
%
Delta-T
°C
Wind Press
QNH
hPa
Press
MSL
hPa
Rain
since 9 am
mm
Dir
 
Spd
km/h
Gust
km/h
Spd
kts
Gust
kts
02/11:30pm 12.4 8.5 9.4 82 1.5 NNW 20 26 11 14 1012.9 - 0.0
02/11:00pm 12.8 8.9 9.6 81 1.6 NNW 20 28 11 15 1013.1 - 0.0
02/10:30pm 13.5 9.0 10.1 80 1.8 NW 24 32 13 17 1013.5 - 0.0
02/10:00pm 13.7 9.3 10.5 81 1.7 NW 24 30 13 16 1013.7 - 0.0
02/09:30pm 13.9 9.2 10.7 81 1.7 NW 26 33 14 18 1013.6 - 0.0
02/09:00pm 14.0 9.5 10.2 78 2.0 NW 24 30 13 16 1013.7 1013.6 0.0
02/08:30pm 13.9 9.8 8.5 70 2.7 NW 20 24 11 13 1013.8 - 0.0
02/08:00pm 14.1 9.7 7.4 64 3.3 WNW 20 24 11 13 1013.9 - 0.0
02/07:30pm 14.3 10.5 7.6 64 3.3 WNW 17 20 9 11 1013.8 - 0.0
02/07:00pm 14.3 10.8 7.1 62 3.5 NW 15 19 8 10 1013.5 - 0.0
02/06:30pm 16.1 11.9 7.3 56 4.4 WNW 19 22 10 12 1013.4 - 0.0
02/06:00pm 17.0 12.8 8.2 56 4.5 WNW 20 28 11 15 1013.3 1013.2 0.0
02/05:30pm 18.2 12.6 8.7 54 4.9 WNW 28 37 15 20 1013.2 - 0.0
02/05:00pm 18.9 12.6 9.1 53 5.2 W 32 41 17 22 1013.3 - 0.0
02/04:30pm 18.8 12.7 9.8 56 4.8 WNW 32 41 17 22 1013.5 - 0.0
02/04:00pm 18.7 11.3 9.8 56 4.7 W 39 48 21 26 1013.6 - 0.0
02/03:30pm 18.8 12.1 9.8 56 4.8 W 35 44 19 24 1013.7 - 0.0
02/03:00pm 19.6 12.5 9.5 52 5.4 W 37 52 20 28 1013.5 1013.4 0.0
02/02:30pm 20.9 13.9 9.8 49 6.0 W 37 46 20 25 1013.5 - 0.0
02/02:00pm 19.5 12.9 10.0 54 5.1 W 35 44 19 24 1013.9 - 0.0
02/01:43pm 19.5 12.9 10.0 54 5.1 W 35 46 19 25 1014.1 - 0.0
02/01:30pm 20.2 12.8 8.2 46 6.3 WNW 37 46 20 25 1014.0 - 0.0
02/01:00pm 21.1 14.5 8.7 45 6.6 WNW 33 43 18 23 1014.4 - 0.0
02/12:30pm 20.0 13.5 9.0 49 5.8 WNW 33 46 18 25 1014.9 - 0.0
02/12:00pm 19.3 13.8 9.2 52 5.3 WNW 28 35 15 19 1015.5 1015.5 0.0
02/11:30am 19.3 12.2 9.5 53 5.2 WNW 37 46 20 25 1015.9 - 0.0
02/11:00am 18.2 11.6 8.7 54 4.9 WNW 33 44 18 24 1016.1 - 0.0
02/10:30am 18.0 11.0 8.6 54 4.9 WNW 35 50 19 27 1016.5 - 0.0
02/10:00am 18.4 11.6 7.5 49 5.5 WNW 33 43 18 23 1016.3 - 0.0
02/09:30am 17.3 10.1 7.6 53 4.9 NW 35 48 19 26 1016.3 - 0.0
02/09:00am 16.3 10.5 6.4 52 4.8 NW 26 33 14 18 1016.5 1016.5 0.0
02/08:30am 14.5 9.1 6.3 58 4.0 NNW 24 33 13 18 1016.4 - 0.0
02/08:00am 12.3 8.1 5.7 64 3.1 NNW 17 24 9 13 1016.2 - 0.0
02/07:30am 11.0 6.1 5.3 68 2.6 N 20 26 11 14 1015.8 - 0.0
02/07:00am 10.0 5.2 4.8 70 2.3 N 19 22 10 12 1015.7 - 0.0
02/06:30am 10.5 5.6 5.1 69 2.5 N 20 26 11 14 1015.6 - 0.0
02/06:00am 10.6 5.7 4.9 68 2.6 N 20 26 11 14 1015.6 1015.6 0.0
02/05:30am 10.9 6.0 5.2 68 2.6 N 20 24 11 13 1015.7 - 0.0
02/05:00am 10.6 6.2 4.9 68 2.6 N 17 22 9 12 1015.6 - 0.0
02/04:30am 11.4 6.7 5.3 66 2.8 N 19 24 10 13 1015.5 - 0.0
02/04:00am 11.6 6.8 5.5 66 2.8 N 20 26 11 14 1015.8 - 0.0
02/03:30am 11.1 5.9 5.4 68 2.6 N 22 26 12 14 1016.2 - 0.0
02/03:00am 11.1 6.5 5.6 69 2.5 N 19 24 10 13 1016.2 1016.2 0.0
02/02:30am 11.3 6.7 5.8 69 2.6 N 19 24 10 13 1016.6 - 0.0
02/02:00am 11.2 6.6 5.7 69 2.6 N 19 22 10 12 1017.1 - 0.0
02/01:30am 10.9 7.1 5.7 70 2.4 N 15 20 8 11 1017.3 - 0.0
02/01:00am 11.3 7.5 5.6 68 2.6 N 15 20 8 11 1017.8 - 0.0
02/12:30am 10.6 8.3 5.6 71 2.3 NW 7 9 4 5 1018.1 - 0.0
02/12:00am 11.2 7.4 5.7 69 2.6 N 15 17 8 9 1018.4 1018.4 0.0
 
Date/Time
CST
Temp
°C
App
Temp
°C
Dew
Point
Rel
Hum
%
Delta-T
°C
Wind Press
QNH
hPa
Press
MSL
hPa
Rain
since 9 am
mm
Dir
 
Spd
km/h
Gust
km/h
Spd
kts
Gust
kts
01/11:30pm 9.2 7.4 5.6 78 1.6 N 4 13 2 7 1018.8 - 0.0
01/11:00pm 7.4 4.6 3.3 75 1.7 NNW 7 9 4 5 1018.9 - 0.0
01/10:30pm 8.0 5.9 3.8 75 1.8 N 4 6 2 3 1019.1 - 0.0
01/10:00pm 8.1 5.4 3.6 73 1.9 N 7 9 4 5 1019.3 - 0.0
01/09:30pm 9.0 7.6 3.4 68 2.4 CALM 0 0 0 0 1019.4 - 0.0
01/09:00pm 10.2 8.8 3.7 64 2.9 CALM 0 0 0 0 1019.4 1019.4 0.0
01/08:30pm 12.9 10.5 4.3 56 3.9 NW 6 7 3 4 1019.2 - 0.0
01/08:00pm 14.8 12.4 5.1 52 4.6 SW 7 9 4 5 1019.1 - 0.0
01/07:30pm 15.4 12.5 4.5 48 5.1 SW 9 11 5 6 1019.1 - 0.0
01/07:00pm 15.8 12.4 4.2 46 5.4 SSW 11 13 6 7 1019.0 - 0.0
01/06:30pm 15.7 12.3 3.8 45 5.5 S 11 13 6 7 1018.6 - 0.0
01/06:00pm 16.3 12.0 3.4 42 5.9 SSW 15 20 8 11 1018.4 1018.4 0.0
01/05:30pm 16.9 12.3 3.6 41 6.2 SW 17 22 9 12 1018.3 - 0.0
01/05:00pm 17.4 11.8 3.7 40 6.4 SW 22 28 12 15 1018.2 - 0.0
01/04:30pm 18.0 12.9 3.9 39 6.7 SW 20 28 11 15 1018.1 - 0.0
01/04:00pm 18.2 12.6 3.7 38 6.8 SW 22 33 12 18 1018.0 - 0.0
01/03:30pm 18.7 13.9 2.5 34 7.5 WSW 17 24 9 13 1017.9 - 0.0
01/03:00pm 19.6 14.5 2.9 33 7.8 WSW 19 26 10 14 1018.0 1018.0 0.0
01/02:30pm 19.4 14.0 2.3 32 7.9 W 20 30 11 16 1018.0 - 0.0
01/02:00pm 18.9 13.7 2.7 34 7.5 W 19 30 10 16 1018.1 - 0.0
01/01:30pm 18.7 13.5 3.3 36 7.2 W 20 33 11 18 1018.3 - 0.0
01/01:00pm 18.1 13.2 3.9 39 6.7 SW 19 33 10 18 1018.5 - 0.0
01/12:30pm 19.7 14.7 4.6 37 7.3 SW 20 26 11 14 1018.7 - 0.0
01/12:00pm 17.8 12.8 4.4 41 6.4 WSW 20 26 11 14 1019.1 1019.1 0.0
01/11:30am 17.2 11.4 6.1 48 5.4 SW 26 32 14 17 1019.3 - 0.0
01/11:00am 17.4 12.8 5.7 46 5.7 WSW 19 28 10 15 1019.4 - 0.0
01/10:30am 17.2 13.3 7.0 51 5.1 SW 17 22 9 12 1019.5 - 0.0
01/10:00am 17.0 12.6 7.6 54 4.7 SW 20 28 11 15 1019.8 - 0.0
01/09:30am 16.1 13.4 8.8 62 3.8 W 13 19 7 10 1019.8 - 0.0
01/09:00am 15.2 12.2 9.1 67 3.1 W 15 19 8 10 1019.4 1019.4 0.0
01/08:30am 13.6 11.5 9.8 78 2.0 WSW 11 15 6 8 1018.9 - 0.0
01/08:00am 11.3 10.9 9.6 89 0.9 NNW 2 6 1 3 1018.4 - 0.0
01/07:30am 9.3 8.4 7.7 90 0.8 NNW 2 6 1 3 1018.2 - 0.0
01/07:00am 9.2 8.3 7.6 90 0.8 NW 2 6 1 3 1018.1 - 0.0
01/06:30am 9.5 7.2 7.6 88 0.9 WNW 9 11 5 6 1017.9 - 0.0
01/06:00am 9.2 6.5 7.3 88 0.9 WNW 11 13 6 7 1017.7 1017.7 0.0
01/05:30am 10.2 6.5 8.1 87 1.0 W 17 19 9 10 1017.4 - 0.0
01/05:00am 10.4 7.2 8.3 87 1.0 NW 15 19 8 10 1017.2 - 0.0
01/04:30am 11.5 7.9 8.5 82 1.5 WNW 17 20 9 11 1016.8 - 0.0
01/04:00am 11.5 7.7 8.9 84 1.3 WNW 19 22 10 12 1016.6 - 0.0
01/03:30am 11.4 8.0 9.1 86 1.2 WNW 17 22 9 12 1016.4 - 0.0
01/03:00am 11.7 7.7 8.9 83 1.4 W 20 24 11 13 1016.1 1016.1 0.0
01/02:30am 12.2 8.5 9.4 83 1.4 WNW 19 22 10 12 1015.8 - 0.0
01/02:00am 12.1 8.4 9.3 83 1.4 W 19 22 10 12 1015.4 - 0.0
01/01:30am 12.8 9.0 9.8 82 1.5 WNW 20 26 11 14 1015.4 - 0.0
01/01:00am 12.7 8.6 10.1 84 1.3 WNW 22 28 12 15 1015.2 - 0.0
01/12:30am 13.2 8.0 10.4 83 1.5 WNW 28 37 15 20 1015.1 - 0.0
01/12:27am 13.3 7.5 10.7 84 1.4 W 32 50 17 27 1015.1 - 0.0
01/12:17am 13.6 6.0 10.6 82 1.6 W 41 48 22 26 1015.2 - 0.0
01/12:00am 13.3 9.5 9.9 80 1.8 WNW 20 26 11 14 1014.8 1014.7 0.0
 
Date/Time
CST
Temp
°C
App
Temp
°C
Dew
Point
Rel
Hum
%
Delta-T
°C
Wind Press
QNH
hPa
Press
MSL
hPa
Rain
since 9 am
mm
Dir
 
Spd
km/h
Gust
km/h
Spd
kts
Gust
kts
30/11:30pm 13.1 9.5 9.9 81 1.7 WNW 19 22 10 12 1014.8 - 0.0
30/11:00pm 13.6 10.0 9.8 78 2.0 NW 19 22 10 12 1014.7 - 0.0
30/10:30pm 13.8 9.9 9.6 76 2.2 WNW 20 24 11 13 1014.6 - 0.0
30/10:00pm 13.9 9.7 9.9 77 2.1 WNW 22 28 12 15 1014.2 - 0.0
30/09:30pm 14.4 9.5 10.0 75 2.3 W 26 32 14 17 1014.0 - 0.0
30/09:00pm 14.5 10.0 9.9 74 2.4 WNW 24 32 13 17 1013.7 1013.5 0.0
30/08:30pm 14.9 10.0 10.1 73 2.5 WNW 26 33 14 18 1013.2 - 0.0
30/08:00pm 15.3 9.2 9.9 70 2.8 WNW 32 39 17 21 1012.8 - 0.0
30/07:30pm 15.8 9.8 10.1 69 3.0 WNW 32 43 17 23 1012.9 - 0.0
30/07:00pm 15.8 10.1 9.9 68 3.1 W 30 39 16 21 1012.0 - 0.0
30/06:30pm 16.5 9.6 8.7 60 4.0 W 35 46 19 25 1011.4 - 0.0
30/06:06pm 16.8 8.7 10.0 64 3.6 WSW 43 61 23 33 1011.0 - 0.0
30/06:00pm 16.9 7.9 10.3 65 3.5 WSW 48 61 26 33 1010.9 1010.7 0.0
30/05:30pm 18.5 8.1 10.6 60 4.3 W 56 74 30 40 1009.9 - 0.0
30/05:25pm 20.0 9.6 9.3 50 5.7 W 54 74 29 40 1009.6 - 0.0
30/05:00pm 23.1 13.2 4.6 30 9.2 W 46 61 25 33 1008.6 - 0.0
30/04:30pm 24.2 14.1 3.5 26 10.1 W 46 59 25 32 1008.1 - 0.0
30/04:00pm 25.7 15.2 3.6 24 11.0 WNW 48 63 26 34 1007.9 - 0.0
30/03:51pm 26.4 15.8 0.9 19 12.1 NW 46 65 25 35 1007.6 - 0.0
30/03:30pm 26.8 16.2 0.5 18 12.4 NW 46 61 25 33 1007.3 - 0.0
30/03:00pm 27.3 17.9 0.1 17 12.8 NW 39 56 21 30 1007.4 1007.3 0.0
30/02:30pm 27.5 16.7 -0.5 16 13.1 NW 46 65 25 35 1007.3 - 0.0
30/02:24pm 27.5 16.8 0.3 17 12.9 NW 46 65 25 35 1007.3 - 0.0
30/02:18pm 27.2 16.5 2.3 20 12.2 NW 48 61 26 33 1007.4 - 0.0
30/02:00pm 27.1 17.2 1.5 19 12.3 NNW 43 59 23 32 1007.5 - 0.0
30/01:34pm 27.2 18.3 3.0 21 12.0 NNW 39 57 21 31 1008.2 - 0.0
30/01:30pm 26.6 17.2 2.5 21 11.8 NW 41 56 22 30 1008.2 - 0.0
30/01:00pm 26.7 17.6 1.9 20 12.0 NNW 39 59 21 32 1009.0 - 0.0
30/12:55pm 27.1 17.4 0.8 18 12.5 NNW 41 59 22 32 1009.0 - 0.0
30/12:30pm 26.4 16.9 1.7 20 11.9 NW 41 57 22 31 1009.5 - 0.0
30/12:25pm 26.4 17.4 0.2 18 12.3 NW 37 57 20 31 1009.5 - 0.0
30/12:00pm 26.1 18.3 2.7 22 11.5 NNW 33 48 18 26 1009.9 1009.7 0.0
30/11:30am 25.3 18.6 3.9 25 10.6 NNW 28 39 15 21 1010.6 - 0.0
30/11:00am 24.5 18.1 3.2 25 10.4 NNW 26 37 14 20 1011.1 - 0.0

Other Formats:

Comma delimited format used in spreadsheet applications
http://www.bom.gov.au/fwo/IDS60801/IDS60801.95654.axf

JavaScript Object Notation format (JSON) in row-major order
http://www.bom.gov.au/fwo/IDS60801/IDS60801.95654.json